createdAt,value
2022-10-09T00:01:35.249Z,84.20
2022-10-09T00:06:42.964Z,84.09
2022-10-09T00:11:50.330Z,83.59
2022-10-09T00:16:59.829Z,83.79
2022-10-09T00:22:07.236Z,83.38
2022-10-09T00:27:14.454Z,82.58
2022-10-09T00:32:21.563Z,82.62
2022-10-09T00:37:29.594Z,80.86
2022-10-09T00:42:36.854Z,80.14
2022-10-09T00:47:48.091Z,80.22
2022-10-09T00:53:00.029Z,80.73
2022-10-09T00:58:08.417Z,80.40
2022-10-09T01:03:15.601Z,79.78
2022-10-09T01:08:31.093Z,79.47
2022-10-09T01:13:46.816Z,79.74
2022-10-09T01:19:00.332Z,80.17
2022-10-09T01:24:18.929Z,80.27
2022-10-09T01:29:29.966Z,80.33
2022-10-09T01:34:38.550Z,79.84
2022-10-09T01:39:50.394Z,80.05
2022-10-09T01:44:57.593Z,80.54
2022-10-09T01:50:15.213Z,80.35
2022-10-09T01:55:43.828Z,80.38
2022-10-09T02:00:58.114Z,80.75
2022-10-09T02:06:08.303Z,81.04
2022-10-09T02:11:16.471Z,81.12
2022-10-09T02:16:37.763Z,81.15
2022-10-09T02:21:53.653Z,81.00
2022-10-09T02:27:03.717Z,81.35
2022-10-09T02:32:11.596Z,81.79
2022-10-09T02:37:22.227Z,81.84
2022-10-09T02:42:29.586Z,82.27
2022-10-09T02:47:36.870Z,82.17
2022-10-09T02:52:43.817Z,82.46
2022-10-09T02:57:51.166Z,82.49
2022-10-09T03:02:58.442Z,82.72
2022-10-09T03:08:06.020Z,83.37
2022-10-09T03:13:14.176Z,83.45
2022-10-09T03:18:22.450Z,83.63
2022-10-09T03:23:30.266Z,83.74
2022-10-09T03:28:40.702Z,83.98
2022-10-09T03:33:48.514Z,84.19
2022-10-09T03:38:55.863Z,84.53
2022-10-09T03:44:03.856Z,84.53
2022-10-09T03:49:11.011Z,84.43
2022-10-09T03:54:19.031Z,84.67
2022-10-09T03:59:26.194Z,84.96
2022-10-09T04:04:33.901Z,84.76
2022-10-09T04:09:42.015Z,85.04
2022-10-09T04:14:49.183Z,85.49
2022-10-09T04:19:56.582Z,85.75
2022-10-09T04:25:04.753Z,85.63
2022-10-09T04:30:14.423Z,85.85
2022-10-09T04:35:24.894Z,85.93
2022-10-09T04:40:32.841Z,85.89
2022-10-09T04:45:43.867Z,86.21
2022-10-09T04:50:51.217Z,86.49
2022-10-09T04:55:58.637Z,86.84
2022-10-09T05:01:09.327Z,87.43
2022-10-09T05:06:17.973Z,87.61
2022-10-09T05:11:27.015Z,87.57
2022-10-09T05:16:49.374Z,87.51
2022-10-09T05:22:01.794Z,87.32
2022-10-09T05:27:09.573Z,87.38
2022-10-09T05:32:17.036Z,86.88
2022-10-09T05:37:24.187Z,86.47
2022-10-09T05:42:31.505Z,85.42
2022-10-09T05:47:38.599Z,85.80
2022-10-09T05:52:45.849Z,85.27
2022-10-09T05:57:53.773Z,84.73
2022-10-09T06:03:00.941Z,84.49
2022-10-09T06:08:08.056Z,84.83
2022-10-09T06:13:15.354Z,84.08
2022-10-09T06:18:22.920Z,83.61
2022-10-09T06:23:31.720Z,83.48
2022-10-09T06:28:40.211Z,82.62
2022-10-09T06:33:50.485Z,83.16
2022-10-09T06:39:02.227Z,82.72
2022-10-09T06:44:16.509Z,82.82
2022-10-09T06:49:24.207Z,82.42
2022-10-09T06:54:31.986Z,82.28
2022-10-09T06:59:39.114Z,81.55
2022-10-09T07:04:48.126Z,81.28
2022-10-09T07:09:55.643Z,81.70
2022-10-09T07:15:02.712Z,82.08
2022-10-09T07:20:11.849Z,81.33
2022-10-09T07:25:19.287Z,80.75
2022-10-09T07:30:27.012Z,80.39
2022-10-09T07:35:35.206Z,80.84
2022-10-09T07:40:42.881Z,79.98
2022-10-09T07:45:53.260Z,78.51
2022-10-09T07:51:11.056Z,78.33
2022-10-09T07:56:19.809Z,78.01
2022-10-09T08:01:29.066Z,77.55
2022-10-09T08:06:36.714Z,77.58
2022-10-09T08:11:44.676Z,76.68
2022-10-09T08:16:52.097Z,76.65
2022-10-09T08:22:03.388Z,75.20
2022-10-09T08:27:10.915Z,75.46
2022-10-09T08:32:18.215Z,75.29
2022-10-09T08:37:25.301Z,74.74
2022-10-09T08:42:40.018Z,74.33
2022-10-09T08:47:52.130Z,73.84
2022-10-09T08:53:06.626Z,72.18
2022-10-09T08:58:18.698Z,72.18
2022-10-09T09:03:43.097Z,71.70
2022-10-09T09:08:56.621Z,71.82
2022-10-09T09:14:22.594Z,72.28
2022-10-09T09:19:47.456Z,70.89
2022-10-09T09:24:57.379Z,70.70
2022-10-09T09:30:16.770Z,69.50
2022-10-09T09:35:30.206Z,69.01
2022-10-09T09:40:38.851Z,69.29
2022-10-09T09:45:48.442Z,68.33
2022-10-09T09:51:16.114Z,68.43
2022-10-09T09:57:10.348Z,68.07
2022-10-09T10:02:16.266Z,67.13
2022-10-09T10:07:42.972Z,65.94
2022-10-09T10:12:55.604Z,65.66
2022-10-09T10:18:06.105Z,64.91
2022-10-09T10:23:33.617Z,63.58
2022-10-09T10:28:43.996Z,63.31
2022-10-09T10:33:57.837Z,63.11
2022-10-09T10:39:10.987Z,64.00
2022-10-09T10:44:24.256Z,62.19
2022-10-09T10:49:34.008Z,63.14
2022-10-09T10:54:44.694Z,62.54
2022-10-09T11:00:06.467Z,60.62
2022-10-09T11:05:33.130Z,61.88
2022-10-09T11:10:50.823Z,61.99
2022-10-09T11:16:08.173Z,60.66
2022-10-09T11:21:27.237Z,60.69
2022-10-09T11:26:42.881Z,60.52
2022-10-09T11:31:55.935Z,60.21
2022-10-09T11:37:08.302Z,61.43
2022-10-09T11:42:20.287Z,60.73
2022-10-09T11:47:33.139Z,59.81
2022-10-09T11:52:51.254Z,58.55
2022-10-09T11:58:08.586Z,59.93
2022-10-09T12:03:35.737Z,60.60
2022-10-09T12:08:56.050Z,60.60
2022-10-09T12:14:05.504Z,61.09
2022-10-09T12:19:23.528Z,60.75
2022-10-09T12:24:34.155Z,61.05
2022-10-09T12:29:48.757Z,60.92
2022-10-09T12:34:59.620Z,60.59
2022-10-09T12:40:19.036Z,60.04
2022-10-09T12:45:30.324Z,57.65
2022-10-09T12:50:37.806Z,58.58
2022-10-09T12:55:47.066Z,57.80
2022-10-09T13:00:59.447Z,58.72
2022-10-09T13:06:09.693Z,57.64
2022-10-09T13:11:26.165Z,56.93
2022-10-09T13:16:44.728Z,56.54
2022-10-09T13:22:10.699Z,56.05
2022-10-09T13:27:19.707Z,55.87
2022-10-09T13:32:27.651Z,55.89
2022-10-09T13:37:35.058Z,56.48
2022-10-09T13:42:43.776Z,57.27
2022-10-09T13:47:52.066Z,58.35
2022-10-09T13:53:00.534Z,58.88
2022-10-09T13:58:07.638Z,59.55
2022-10-09T14:03:14.772Z,58.84
2022-10-09T14:08:21.725Z,57.92
2022-10-09T14:13:29.912Z,57.80
2022-10-09T14:18:37.506Z,58.11
2022-10-09T14:23:44.829Z,57.33
2022-10-09T14:28:51.993Z,58.80
2022-10-09T14:34:01.061Z,58.66
2022-10-09T14:39:08.434Z,58.68
2022-10-09T14:44:16.007Z,57.88
2022-10-09T14:49:23.439Z,57.76
2022-10-09T14:54:30.434Z,57.18
2022-10-09T14:59:37.873Z,56.61
2022-10-09T15:04:45.616Z,57.28
2022-10-09T15:09:52.824Z,57.23
2022-10-09T15:15:00.889Z,57.00
2022-10-09T15:20:10.501Z,56.85
2022-10-09T15:25:18.584Z,57.59
2022-10-09T15:30:27.825Z,57.56
2022-10-09T15:35:35.677Z,57.78
2022-10-09T15:40:47.309Z,58.39
2022-10-09T15:46:01.859Z,58.54
2022-10-09T15:51:13.676Z,59.19
2022-10-09T15:56:22.782Z,60.13
2022-10-09T16:01:30.338Z,59.97
2022-10-09T16:06:38.054Z,60.10
2022-10-09T16:11:45.051Z,61.79
2022-10-09T16:16:51.964Z,62.65
2022-10-09T16:21:58.948Z,63.05
2022-10-09T16:27:06.206Z,63.33
2022-10-09T16:32:13.737Z,65.47
2022-10-09T16:37:20.862Z,67.33
2022-10-09T16:42:27.935Z,68.31
2022-10-09T16:47:35.221Z,69.69
2022-10-09T16:52:42.503Z,70.39
2022-10-09T16:57:50.013Z,71.36
2022-10-09T17:02:58.258Z,72.32
2022-10-09T17:08:05.497Z,72.38
2022-10-09T17:13:12.743Z,73.00
2022-10-09T17:18:21.291Z,74.08
2022-10-09T17:23:28.323Z,75.18
2022-10-09T17:28:37.175Z,75.04
2022-10-09T17:33:48.536Z,75.68
2022-10-09T17:38:56.342Z,75.83
2022-10-09T17:44:03.873Z,75.97
2022-10-09T17:49:10.946Z,76.96
2022-10-09T17:54:18.769Z,77.25
2022-10-09T17:59:25.917Z,77.68
2022-10-09T18:04:33.121Z,78.17
2022-10-09T18:09:40.790Z,78.82
2022-10-09T18:14:48.304Z,78.98
2022-10-09T18:19:55.326Z,79.49
2022-10-09T18:25:00.574Z,79.98
2022-10-09T18:30:09.813Z,80.45
2022-10-09T18:35:16.886Z,80.82
2022-10-09T18:40:22.356Z,81.38
2022-10-09T18:45:32.998Z,81.94
2022-10-09T18:50:40.814Z,82.28
2022-10-09T18:55:46.321Z,82.51
2022-10-09T19:00:56.891Z,82.69
2022-10-09T19:06:04.437Z,82.90
2022-10-09T19:11:10.123Z,83.17
2022-10-09T19:16:17.324Z,83.33
2022-10-09T19:21:22.695Z,83.69
2022-10-09T19:26:29.795Z,84.09
2022-10-09T19:31:35.789Z,84.00
2022-10-09T19:36:43.572Z,83.98
2022-10-09T19:41:51.597Z,84.22
2022-10-09T19:46:58.878Z,85.03
2022-10-09T19:52:06.358Z,85.19
2022-10-09T19:57:13.511Z,85.50
2022-10-09T20:02:20.626Z,86.01
2022-10-09T20:07:27.794Z,86.02
2022-10-09T20:12:35.660Z,86.05
2022-10-09T20:17:42.587Z,85.84
2022-10-09T20:22:49.871Z,86.00
2022-10-09T20:27:57.193Z,86.48
2022-10-09T20:33:05.557Z,86.72
2022-10-09T20:38:13.443Z,87.33
2022-10-09T20:43:20.757Z,87.45
2022-10-09T20:48:27.922Z,86.95
2022-10-09T20:53:35.659Z,86.87
2022-10-09T20:58:41.840Z,86.83
2022-10-09T21:03:49.556Z,86.96
2022-10-09T21:08:57.521Z,87.49
2022-10-09T21:14:05.808Z,87.90
2022-10-09T21:19:14.619Z,88.49
2022-10-09T21:24:21.593Z,88.19
2022-10-09T21:29:28.814Z,88.02
2022-10-09T21:34:34.320Z,88.24
2022-10-09T21:39:41.614Z,88.10
2022-10-09T21:44:48.759Z,88.72
2022-10-09T21:49:55.825Z,88.88
2022-10-09T21:55:01.063Z,88.42
2022-10-09T22:00:10.534Z,87.84
2022-10-09T22:05:17.533Z,87.84
2022-10-09T22:10:25.011Z,87.03
2022-10-09T22:15:32.056Z,86.96
2022-10-09T22:20:43.596Z,86.28
2022-10-09T22:26:00.946Z,85.87
2022-10-09T22:31:10.530Z,85.53
2022-10-09T22:36:19.207Z,85.00
2022-10-09T22:41:27.031Z,84.95
2022-10-09T22:46:36.117Z,84.55
2022-10-09T22:51:43.832Z,84.48
2022-10-09T22:56:51.749Z,84.11
2022-10-09T23:02:00.815Z,84.16
2022-10-09T23:07:08.205Z,84.29
2022-10-09T23:12:15.167Z,84.29
2022-10-09T23:17:22.360Z,84.17
2022-10-09T23:22:27.663Z,84.19
2022-10-09T23:27:34.762Z,84.61
2022-10-09T23:32:41.841Z,84.78
2022-10-09T23:37:48.963Z,84.78
2022-10-09T23:42:54.389Z,84.63
2022-10-09T23:48:01.490Z,85.69
2022-10-09T23:53:08.795Z,86.01
2022-10-09T23:58:20.688Z,85.44
